Time;durP1;ratioP1;P1;durP2;ratioP2;P2;SDS_P1;SDS_P2;PMS_P1;PMS_P2;Temp;Humidity;BMP_temperature;BMP_pressure;BME280_temperature;BME280_humidity;BME280_pressure;Samples;Min_cycle;Max_cycle;Signal;HPM_P1;HPM_P2
2023/08/27 00:01:45;;;;;;;;;;;16.80;99.90;;;;;;7336965;19;108533;-68
2023/08/27 00:04:12;;;;;;;;;;;16.80;99.90;;;;;;7329612;19;110850;-68
2023/08/27 00:06:39;;;;;;;;;;;16.80;99.90;;;;;;7331655;19;109804;-67
2023/08/27 00:09:07;;;;;;;;;;;16.80;99.90;;;;;;7334517;19;108846;-66
2023/08/27 00:11:34;;;;;;;;;;;16.80;99.90;;;;;;7336080;19;109450;-67
2023/08/27 00:14:03;;;;;;;;;;;16.80;99.90;;;;;;7335978;19;109104;-68
2023/08/27 00:16:30;;;;;;;;;;;16.70;99.90;;;;;;7339375;19;110628;-68
2023/08/27 00:18:58;;;;;;;;;;;16.70;99.90;;;;;;7335349;19;109632;-68
2023/08/27 00:21:25;;;;;;;;;;;16.70;99.90;;;;;;7331872;19;109084;-68
2023/08/27 00:23:52;;;;;;;;;;;16.60;99.90;;;;;;7336012;19;109438;-66
2023/08/27 00:26:19;;;;;;;;;;;16.50;99.90;;;;;;7332575;19;110089;-66
2023/08/27 00:28:46;;;;;;;;;;;16.50;99.90;;;;;;7334662;19;110537;-67
2023/08/27 00:31:13;;;;;;;;;;;16.50;99.90;;;;;;7335009;19;110601;-66
2023/08/27 00:33:41;;;;;;;;;;;16.50;99.90;;;;;;7332864;19;109292;-66
2023/08/27 00:36:08;;;;;;;;;;;16.60;99.90;;;;;;7330583;19;110584;-66
2023/08/27 00:38:35;;;;;;;;;;;16.50;99.90;;;;;;7339612;19;108770;-66
2023/08/27 00:41:02;;;;;;;;;;;16.50;99.90;;;;;;7331711;19;108608;-66
2023/08/27 00:43:29;;;;;;;;;;;16.50;99.90;;;;;;7335066;19;108726;-67
2023/08/27 00:45:57;;;;;;;;;;;16.50;99.90;;;;;;7336005;19;110245;-67
2023/08/27 00:48:24;;;;;;;;;;;16.50;99.90;;;;;;7331161;19;111212;-66
2023/08/27 00:50:51;;;;;;;;;;;16.50;99.90;;;;;;7332705;19;108543;-66
2023/08/27 00:53:18;;;;;;;;;;;16.50;99.90;;;;;;7334956;19;111103;-66
2023/08/27 00:55:45;;;;;;;;;;;16.50;99.90;;;;;;7329989;19;108862;-66
2023/08/27 00:58:12;;;;;;;;;;;16.50;99.90;;;;;;7332108;19;109848;-66
2023/08/27 01:00:40;;;;;;;;;;;16.60;99.90;;;;;;7334601;19;109230;-66
2023/08/27 01:03:08;;;;;;;;;;;16.60;99.90;;;;;;7334039;19;110184;-66
2023/08/27 01:05:35;;;;;;;;;;;16.60;99.90;;;;;;7330362;19;109874;-67
2023/08/27 01:08:06;;;;;;;;;;;16.60;99.90;;;;;;7330019;19;108951;-66
2023/08/27 01:10:51;;;;;;;;;;;16.60;99.90;;;;;;7330359;19;109695;-66
2023/08/27 01:13:31;;;;;;;;;;;16.70;99.90;;;;;;7332418;19;110116;-67
2023/08/27 01:16:00;;;;;;;;;;;16.70;99.90;;;;;;7335345;19;109743;-66
2023/08/27 01:18:27;;;;;;;;;;;16.70;99.90;;;;;;7327256;19;109120;-67
2023/08/27 01:20:58;;;;;;;;;;;16.70;99.90;;;;;;7334129;19;109122;-66
2023/08/27 01:23:25;;;;;;;;;;;16.80;99.90;;;;;;7335435;19;108969;-66
2023/08/27 01:25:53;;;;;;;;;;;16.80;99.90;;;;;;7334044;19;110170;-66
2023/08/27 01:28:24;;;;;;;;;;;16.80;99.90;;;;;;7328167;19;109020;-67
2023/08/27 01:31:07;;;;;;;;;;;16.80;99.90;;;;;;7333626;19;109328;-66
2023/08/27 01:33:36;;;;;;;;;;;16.90;99.90;;;;;;7334258;19;109854;-66
2023/08/27 01:36:04;;;;;;;;;;;16.80;99.90;;;;;;7331228;19;109950;-67
2023/08/27 01:38:31;;;;;;;;;;;16.90;99.90;;;;;;7333628;19;109110;-66
2023/08/27 01:40:58;;;;;;;;;;;16.90;99.90;;;;;;7329002;19;109308;-67
2023/08/27 01:43:28;;;;;;;;;;;16.90;99.90;;;;;;7335985;19;109593;-67
2023/08/27 01:45:55;;;;;;;;;;;16.90;99.90;;;;;;7339638;19;108912;-67
2023/08/27 01:48:22;;;;;;;;;;;16.90;99.90;;;;;;7329754;19;110796;-67
2023/08/27 01:50:50;;;;;;;;;;;16.90;99.90;;;;;;7333269;19;109713;-67
2023/08/27 01:53:17;;;;;;;;;;;16.90;99.90;;;;;;7332537;19;109475;-67
2023/08/27 01:55:48;;;;;;;;;;;16.90;99.90;;;;;;7333116;19;118958;-67
2023/08/27 01:58:18;;;;;;;;;;;16.90;99.90;;;;;;7329669;19;109830;-66
2023/08/27 02:00:48;;;;;;;;;;;16.90;99.90;;;;;;7332604;19;110239;-66
2023/08/27 02:03:15;;;;;;;;;;;16.90;99.90;;;;;;7333462;19;109901;-67
2023/08/27 02:05:42;;;;;;;;;;;16.90;99.90;;;;;;7337578;19;110221;-66
2023/08/27 02:08:09;;;;;;;;;;;16.90;99.90;;;;;;7333186;19;109568;-66
2023/08/27 02:10:36;;;;;;;;;;;16.90;99.90;;;;;;7333859;19;110187;-66
2023/08/27 02:13:04;;;;;;;;;;;16.90;99.90;;;;;;7331236;19;109155;-66
2023/08/27 02:15:31;;;;;;;;;;;16.90;99.90;;;;;;7330311;19;110963;-66
2023/08/27 02:17:58;;;;;;;;;;;16.90;99.90;;;;;;7332360;19;108859;-66
2023/08/27 02:20:25;;;;;;;;;;;16.90;99.90;;;;;;7327648;19;112532;-66
2023/08/27 02:22:52;;;;;;;;;;;17.00;99.90;;;;;;7335309;19;108544;-67
2023/08/27 02:25:19;;;;;;;;;;;16.90;99.90;;;;;;7331528;19;108729;-66
2023/08/27 02:27:47;;;;;;;;;;;17.00;99.90;;;;;;7335597;19;109245;-66
2023/08/27 02:30:15;;;;;;;;;;;17.00;99.90;;;;;;7330772;19;108773;-66
2023/08/27 02:32:43;;;;;;;;;;;17.00;99.90;;;;;;7333000;19;110658;-66
2023/08/27 02:35:10;;;;;;;;;;;17.00;99.90;;;;;;7332557;19;108522;-68
2023/08/27 02:37:37;;;;;;;;;;;16.90;99.90;;;;;;7332728;19;109209;-67
2023/08/27 02:40:04;;;;;;;;;;;16.90;99.90;;;;;;7328123;19;109194;-66
2023/08/27 02:42:31;;;;;;;;;;;16.90;99.90;;;;;;7327856;19;109401;-69
2023/08/27 02:44:58;;;;;;;;;;;16.90;99.90;;;;;;7335195;19;109236;-67
2023/08/27 02:47:26;;;;;;;;;;;16.80;99.90;;;;;;7332756;19;109474;-67
2023/08/27 02:49:53;;;;;;;;;;;16.80;99.90;;;;;;7338222;19;108870;-66
2023/08/27 02:52:21;;;;;;;;;;;16.80;99.90;;;;;;7329395;19;109783;-67
2023/08/27 02:54:48;;;;;;;;;;;16.90;99.90;;;;;;7332129;19;108689;-67
2023/08/27 02:57:15;;;;;;;;;;;16.80;99.90;;;;;;7331795;19;109157;-67
2023/08/27 02:59:42;;;;;;;;;;;16.90;99.90;;;;;;7334083;19;109738;-67
2023/08/27 03:02:09;;;;;;;;;;;16.90;99.90;;;;;;7329424;19;109035;-69
2023/08/27 03:04:36;;;;;;;;;;;16.90;99.90;;;;;;7331582;19;108693;-67
2023/08/27 03:07:03;;;;;;;;;;;16.90;99.90;;;;;;7331876;19;109127;-68
2023/08/27 03:09:31;;;;;;;;;;;16.90;99.90;;;;;;7332137;19;110153;-67
2023/08/27 03:11:58;;;;;;;;;;;16.90;99.90;;;;;;7340027;19;108628;-67
2023/08/27 03:14:25;;;;;;;;;;;16.90;99.90;;;;;;7334452;19;108782;-67
2023/08/27 03:16:52;;;;;;;;;;;16.90;99.90;;;;;;7331293;19;109276;-67
2023/08/27 03:19:19;;;;;;;;;;;16.90;99.90;;;;;;7328841;19;109104;-67
2023/08/27 03:21:47;;;;;;;;;;;16.90;99.90;;;;;;7323137;19;109594;-86
2023/08/27 03:24:14;;;;;;;;;;;16.90;99.90;;;;;;7322749;19;110700;-87
2023/08/27 03:26:41;;;;;;;;;;;16.80;99.90;;;;;;7319888;19;110480;-87
2023/08/27 03:29:08;;;;;;;;;;;16.80;99.90;;;;;;7323777;19;109667;-87
2023/08/27 03:31:36;;;;;;;;;;;16.80;99.90;;;;;;7326033;19;109258;-87
2023/08/27 03:34:03;;;;;;;;;;;16.80;99.90;;;;;;7331979;19;109563;-87
2023/08/27 03:36:30;;;;;;;;;;;16.80;99.90;;;;;;7330596;19;114887;-87
2023/08/27 03:38:57;;;;;;;;;;;16.80;99.90;;;;;;7331750;19;109405;-86
2023/08/27 03:41:25;;;;;;;;;;;16.90;99.90;;;;;;7327762;19;110022;-87
2023/08/27 03:43:52;;;;;;;;;;;16.90;99.90;;;;;;7327374;19;110333;-87
2023/08/27 03:46:19;;;;;;;;;;;16.80;99.90;;;;;;7335372;19;110005;-87
2023/08/27 03:48:46;;;;;;;;;;;16.80;99.90;;;;;;7329620;19;108786;-88
2023/08/27 03:51:14;;;;;;;;;;;16.70;99.90;;;;;;7334128;19;110340;-86
2023/08/27 03:53:41;;;;;;;;;;;16.70;99.90;;;;;;7319005;19;111000;-88
2023/08/27 03:56:09;;;;;;;;;;;16.80;99.90;;;;;;7331488;19;109040;-87
2023/08/27 03:58:36;;;;;;;;;;;16.70;99.90;;;;;;7321035;19;110329;-87
2023/08/27 04:01:03;;;;;;;;;;;16.70;99.90;;;;;;7328532;19;109382;-87
2023/08/27 04:03:30;;;;;;;;;;;16.70;99.90;;;;;;7327081;19;110648;-87
2023/08/27 04:05:58;;;;;;;;;;;16.70;99.90;;;;;;7333105;19;110271;-87
2023/08/27 04:08:25;;;;;;;;;;;16.70;99.90;;;;;;7333627;19;113293;-68
2023/08/27 04:10:52;;;;;;;;;;;16.70;99.90;;;;;;7337297;19;109005;-68
2023/08/27 04:13:20;;;;;;;;;;;16.60;99.90;;;;;;7332471;19;109218;-67
2023/08/27 04:15:57;;;;;;;;;;;16.60;99.90;;;;;;7341047;19;109560;-68
2023/08/27 04:18:24;;;;;;;;;;;16.50;99.90;;;;;;7335600;19;110024;-67
2023/08/27 04:20:51;;;;;;;;;;;16.50;99.90;;;;;;7338531;19;109219;-67
2023/08/27 04:23:18;;;;;;;;;;;16.50;99.90;;;;;;7332553;19;110642;-67
2023/08/27 04:25:46;;;;;;;;;;;16.50;99.90;;;;;;7336478;19;109427;-67
2023/08/27 04:28:14;;;;;;;;;;;16.50;99.90;;;;;;7333327;19;110656;-66
2023/08/27 04:30:44;;;;;;;;;;;16.50;99.90;;;;;;7336132;19;110146;-67
2023/08/27 04:33:11;;;;;;;;;;;16.40;99.90;;;;;;7332610;19;110098;-67
2023/08/27 04:35:39;;;;;;;;;;;16.40;99.90;;;;;;7337833;19;108450;-71
2023/08/27 04:38:06;;;;;;;;;;;16.40;99.90;;;;;;7339800;19;109229;-69
2023/08/27 04:40:33;;;;;;;;;;;16.30;99.90;;;;;;7335576;19;108848;-68
2023/08/27 04:43:00;;;;;;;;;;;16.30;99.90;;;;;;7331562;19;109243;-68
2023/08/27 04:45:28;;;;;;;;;;;16.30;99.90;;;;;;7334348;19;109818;-68
2023/08/27 04:47:55;;;;;;;;;;;16.30;99.90;;;;;;7336704;19;109488;-67
2023/08/27 04:50:23;;;;;;;;;;;16.30;99.90;;;;;;7335873;19;108806;-68
2023/08/27 04:52:51;;;;;;;;;;;16.30;99.90;;;;;;7330205;19;110827;-68
2023/08/27 04:55:18;;;;;;;;;;;16.30;99.90;;;;;;7332702;19;109455;-66
2023/08/27 04:57:45;;;;;;;;;;;16.30;99.90;;;;;;7335062;19;113629;-66
2023/08/27 05:00:16;;;;;;;;;;;16.30;99.90;;;;;;7329997;19;110018;-67
2023/08/27 05:02:43;;;;;;;;;;;16.30;99.90;;;;;;7328983;19;109671;-67
2023/08/27 05:05:11;;;;;;;;;;;16.30;99.90;;;;;;7330511;19;109922;-66
2023/08/27 05:07:38;;;;;;;;;;;16.30;99.90;;;;;;7331206;19;109908;-66
2023/08/27 05:10:06;;;;;;;;;;;16.30;99.90;;;;;;7327593;19;109220;-67
2023/08/27 05:12:33;;;;;;;;;;;16.30;99.90;;;;;;7332950;19;109155;-68
2023/08/27 05:15:00;;;;;;;;;;;16.40;99.90;;;;;;7328142;19;108725;-67
2023/08/27 05:17:27;;;;;;;;;;;16.40;99.90;;;;;;7330904;19;108587;-66
2023/08/27 05:19:54;;;;;;;;;;;16.50;99.90;;;;;;7332236;19;109979;-66
2023/08/27 05:22:22;;;;;;;;;;;16.50;99.90;;;;;;7337613;19;111485;-66
2023/08/27 05:24:49;;;;;;;;;;;16.50;99.90;;;;;;7329488;19;109159;-69
2023/08/27 05:27:16;;;;;;;;;;;16.50;99.90;;;;;;7327412;19;108851;-67
2023/08/27 05:29:43;;;;;;;;;;;16.50;99.90;;;;;;7332005;19;109803;-67
2023/08/27 05:32:10;;;;;;;;;;;16.60;99.90;;;;;;7331406;19;109602;-76
2023/08/27 05:34:37;;;;;;;;;;;16.60;99.90;;;;;;7330322;19;108535;-73
2023/08/27 05:37:04;;;;;;;;;;;16.60;99.90;;;;;;7338745;19;109062;-69
2023/08/27 05:39:31;;;;;;;;;;;16.70;99.90;;;;;;7335346;19;109524;-71
2023/08/27 05:41:59;;;;;;;;;;;16.70;99.90;;;;;;7336129;19;109075;-76
2023/08/27 05:44:26;;;;;;;;;;;16.70;99.90;;;;;;7334165;19;110086;-68
2023/08/27 05:46:53;;;;;;;;;;;16.80;99.90;;;;;;7333270;19;108781;-71
2023/08/27 05:49:20;;;;;;;;;;;16.90;99.90;;;;;;7333271;19;108848;-71
2023/08/27 05:51:47;;;;;;;;;;;17.00;99.90;;;;;;7333189;19;109319;-71
2023/08/27 05:54:14;;;;;;;;;;;17.00;99.90;;;;;;7326735;19;109346;-68
2023/08/27 05:56:42;;;;;;;;;;;17.00;99.90;;;;;;7329658;19;110261;-72
2023/08/27 05:59:11;;;;;;;;;;;17.00;99.90;;;;;;7329650;19;109193;-66
2023/08/27 06:01:41;;;;;;;;;;;17.10;99.90;;;;;;7328869;19;110107;-66
2023/08/27 06:04:08;;;;;;;;;;;17.10;99.90;;;;;;7329538;19;109297;-69
2023/08/27 06:06:40;;;;;;;;;;;17.10;99.90;;;;;;7333491;19;109967;-69
2023/08/27 06:09:07;;;;;;;;;;;17.10;99.90;;;;;;7333247;19;110485;-68
2023/08/27 06:11:34;;;;;;;;;;;17.20;99.90;;;;;;7328888;19;109787;-68
2023/08/27 06:14:02;;;;;;;;;;;17.20;99.90;;;;;;7330381;19;108495;-67
2023/08/27 06:16:29;;;;;;;;;;;17.20;99.90;;;;;;7327957;19;109804;-68
2023/08/27 06:18:56;;;;;;;;;;;17.30;99.90;;;;;;7332896;19;110447;-68
2023/08/27 06:21:23;;;;;;;;;;;17.30;99.90;;;;;;7329212;19;109555;-69
2023/08/27 06:23:50;;;;;;;;;;;17.30;99.90;;;;;;7336601;19;109447;-68
2023/08/27 06:26:17;;;;;;;;;;;17.40;99.90;;;;;;7335622;19;109978;-68
2023/08/27 06:28:46;;;;;;;;;;;17.40;99.90;;;;;;7332950;19;108536;-68
2023/08/27 06:31:14;;;;;;;;;;;17.50;99.90;;;;;;7329897;19;109871;-68
2023/08/27 06:33:41;;;;;;;;;;;17.50;99.90;;;;;;7332887;19;109309;-68
2023/08/27 06:36:08;;;;;;;;;;;17.50;99.90;;;;;;7329844;19;109261;-68
2023/08/27 06:38:35;;;;;;;;;;;17.60;99.90;;;;;;7326252;19;110208;-68
2023/08/27 06:41:02;;;;;;;;;;;17.60;99.90;;;;;;7331127;19;109989;-68
2023/08/27 06:43:30;;;;;;;;;;;17.60;99.90;;;;;;7329892;19;109641;-68
2023/08/27 06:45:57;;;;;;;;;;;17.70;99.90;;;;;;7328958;19;110885;-68
2023/08/27 06:48:24;;;;;;;;;;;17.70;99.90;;;;;;7339741;19;109211;-68
2023/08/27 06:50:52;;;;;;;;;;;17.70;99.90;;;;;;7329962;19;110076;-68
2023/08/27 06:53:20;;;;;;;;;;;17.80;99.90;;;;;;7334760;19;108764;-68
2023/08/27 06:55:47;;;;;;;;;;;17.90;99.90;;;;;;7331300;19;110035;-68
2023/08/27 06:58:14;;;;;;;;;;;18.00;99.90;;;;;;7332352;19;109037;-68
2023/08/27 07:00:41;;;;;;;;;;;18.00;99.90;;;;;;7323534;19;110420;-67
2023/08/27 07:03:09;;;;;;;;;;;18.00;99.90;;;;;;7326242;19;109764;-67
2023/08/27 07:05:36;;;;;;;;;;;18.00;99.90;;;;;;7329150;19;111720;-67
2023/08/27 07:08:04;;;;;;;;;;;18.10;99.90;;;;;;7336776;19;109137;-67
2023/08/27 07:10:31;;;;;;;;;;;18.20;99.90;;;;;;7339808;19;108340;-66
2023/08/27 07:12:58;;;;;;;;;;;18.30;99.90;;;;;;7336516;19;109009;-66
2023/08/27 07:15:26;;;;;;;;;;;18.30;99.90;;;;;;7332100;19;109366;-67
2023/08/27 07:17:53;;;;;;;;;;;18.40;99.90;;;;;;7335042;19;110169;-66
2023/08/27 07:20:20;;;;;;;;;;;18.50;99.90;;;;;;7335552;19;114400;-66
2023/08/27 07:22:47;;;;;;;;;;;18.60;99.90;;;;;;7337684;19;108988;-66
2023/08/27 07:25:16;;;;;;;;;;;18.60;99.90;;;;;;7339240;19;110136;-65
2023/08/27 07:27:46;;;;;;;;;;;18.70;99.90;;;;;;7339418;19;108956;-66
2023/08/27 07:30:13;;;;;;;;;;;18.70;99.90;;;;;;7334368;19;109090;-66
2023/08/27 07:32:40;;;;;;;;;;;18.70;99.90;;;;;;7341151;19;110019;-66
2023/08/27 07:35:07;;;;;;;;;;;18.80;99.90;;;;;;7334600;19;109983;-67
2023/08/27 07:37:34;;;;;;;;;;;18.90;99.90;;;;;;7337961;19;110222;-67
2023/08/27 07:40:03;;;;;;;;;;;18.90;99.90;;;;;;7335862;19;109219;-67
2023/08/27 07:42:30;;;;;;;;;;;19.00;99.90;;;;;;7335186;19;112817;-67
2023/08/27 07:44:57;;;;;;;;;;;19.00;99.90;;;;;;7335220;19;109993;-66
2023/08/27 07:47:24;;;;;;;;;;;19.10;99.90;;;;;;7333589;19;108872;-67
2023/08/27 07:49:51;;;;;;;;;;;19.20;99.90;;;;;;7337470;19;108718;-67
2023/08/27 07:52:19;;;;;;;;;;;19.20;99.90;;;;;;7332314;19;110832;-66
2023/08/27 07:54:46;;;;;;;;;;;19.30;99.90;;;;;;7340859;19;108989;-67
2023/08/27 07:57:13;;;;;;;;;;;19.30;99.90;;;;;;7337366;19;110400;-66
2023/08/27 07:59:42;;;;;;;;;;;19.40;99.90;;;;;;7339629;19;108793;-67
2023/08/27 08:02:10;;;;;;;;;;;19.50;99.90;;;;;;7334105;19;111664;-67
2023/08/27 08:04:37;;;;;;;;;;;19.50;99.90;;;;;;7334699;19;109086;-68
2023/08/27 08:07:04;;;;;;;;;;;19.60;99.90;;;;;;7330647;19;110298;-66
2023/08/27 08:09:31;;;;;;;;;;;19.70;99.90;;;;;;7335287;19;110861;-66
2023/08/27 08:11:58;;;;;;;;;;;19.80;99.90;;;;;;7334142;19;109066;-66
2023/08/27 08:14:26;;;;;;;;;;;19.80;99.90;;;;;;7330735;19;108755;-66
2023/08/27 08:16:53;;;;;;;;;;;19.80;99.90;;;;;;7340436;19;109102;-65
2023/08/27 08:19:21;;;;;;;;;;;19.90;99.90;;;;;;7332497;19;109322;-66
2023/08/27 08:21:48;;;;;;;;;;;19.90;99.90;;;;;;7333709;19;110380;-65
2023/08/27 08:24:15;;;;;;;;;;;20.00;99.90;;;;;;7334841;19;110213;-67
2023/08/27 08:26:42;;;;;;;;;;;20.10;99.90;;;;;;7333053;19;108661;-66
2023/08/27 08:29:09;;;;;;;;;;;20.20;99.90;;;;;;7330965;19;109948;-66
2023/08/27 08:31:36;;;;;;;;;;;20.20;99.90;;;;;;7332733;19;109125;-66
2023/08/27 08:34:04;;;;;;;;;;;20.30;99.90;;;;;;7334114;19;111684;-67
2023/08/27 08:36:31;;;;;;;;;;;20.30;99.90;;;;;;7339602;19;110544;-67
2023/08/27 08:38:59;;;;;;;;;;;20.30;99.90;;;;;;7336504;19;108716;-67
2023/08/27 08:41:28;;;;;;;;;;;20.30;99.90;;;;;;7334053;19;108728;-67
2023/08/27 08:44:06;;;;;;;;;;;20.30;99.90;;;;;;7335357;19;110170;-67
2023/08/27 08:46:34;;;;;;;;;;;20.40;99.90;;;;;;7335724;19;108960;-67
2023/08/27 08:49:02;;;;;;;;;;;20.40;99.90;;;;;;7338860;19;111058;-67
2023/08/27 08:51:30;;;;;;;;;;;20.50;99.90;;;;;;7335309;19;110238;-67
2023/08/27 08:53:58;;;;;;;;;;;20.50;99.90;;;;;;7333284;19;110467;-67
2023/08/27 08:56:31;;;;;;;;;;;20.50;99.90;;;;;;7335410;19;109440;-67
2023/08/27 08:58:58;;;;;;;;;;;20.50;99.90;;;;;;7339153;19;108877;-67
2023/08/27 09:01:27;;;;;;;;;;;20.50;99.90;;;;;;7333957;19;109203;-66
2023/08/27 09:03:55;;;;;;;;;;;20.50;99.90;;;;;;7331173;19;109314;-66
2023/08/27 09:06:22;;;;;;;;;;;20.60;99.90;;;;;;7335425;19;108580;-67
2023/08/27 09:08:50;;;;;;;;;;;20.70;99.90;;;;;;7332182;19;109102;-66
2023/08/27 09:11:19;;;;;;;;;;;20.80;99.90;;;;;;7328681;19;110140;-68
2023/08/27 09:13:47;;;;;;;;;;;20.90;99.90;;;;;;7332079;19;109013;-65
2023/08/27 09:16:14;;;;;;;;;;;20.90;99.90;;;;;;7330343;19;109289;-66
2023/08/27 09:18:41;;;;;;;;;;;20.80;99.90;;;;;;7331912;19;109099;-66
2023/08/27 09:21:08;;;;;;;;;;;20.70;99.90;;;;;;7338463;19;108793;-66
2023/08/27 09:23:37;;;;;;;;;;;20.60;99.90;;;;;;7331044;19;111803;-66
2023/08/27 09:26:05;;;;;;;;;;;20.50;99.90;;;;;;7334435;19;108331;-66
2023/08/27 09:28:35;;;;;;;;;;;20.40;99.90;;;;;;7331652;19;109818;-66
2023/08/27 09:31:02;;;;;;;;;;;20.40;99.90;;;;;;7330322;19;109123;-66
2023/08/27 09:33:37;;;;;;;;;;;20.40;99.90;;;;;;7334085;19;108955;-66
2023/08/27 09:36:04;;;;;;;;;;;20.50;99.90;;;;;;7332304;19;108415;-66
2023/08/27 09:38:32;;;;;;;;;;;20.50;99.90;;;;;;7330637;19;110475;-66
2023/08/27 09:41:12;;;;;;;;;;;20.50;99.90;;;;;;7326804;19;111255;-67
2023/08/27 09:43:40;;;;;;;;;;;20.50;99.90;;;;;;7337336;19;109781;-67
2023/08/27 09:46:13;;;;;;;;;;;20.60;99.90;;;;;;7332013;19;109466;-67
2023/08/27 09:48:40;;;;;;;;;;;20.70;99.90;;;;;;7335154;19;108769;-67
2023/08/27 09:51:07;;;;;;;;;;;20.90;99.90;;;;;;7331830;19;110475;-66
2023/08/27 09:53:34;;;;;;;;;;;21.10;99.90;;;;;;7334354;19;108630;-67
2023/08/27 09:56:03;;;;;;;;;;;21.30;99.90;;;;;;7331447;19;111318;-67
2023/08/27 09:58:31;;;;;;;;;;;21.50;99.90;;;;;;7329117;19;110287;-67
2023/08/27 10:00:59;;;;;;;;;;;21.60;99.90;;;;;;7328349;19;111100;-66
2023/08/27 10:03:29;;;;;;;;;;;21.60;99.90;;;;;;7332098;19;109983;-67
2023/08/27 10:05:56;;;;;;;;;;;21.70;99.90;;;;;;7338299;19;110187;-67
2023/08/27 10:08:24;;;;;;;;;;;21.60;99.90;;;;;;7327963;19;110114;-68
2023/08/27 10:10:51;;;;;;;;;;;21.60;99.90;;;;;;7332835;19;110637;-67
2023/08/27 10:13:19;;;;;;;;;;;21.60;99.90;;;;;;7329908;19;110382;-68
2023/08/27 10:15:47;;;;;;;;;;;21.50;99.90;;;;;;7335571;19;111255;-68
2023/08/27 10:18:14;;;;;;;;;;;21.50;99.90;;;;;;7333021;19;109084;-68
2023/08/27 10:20:42;;;;;;;;;;;21.40;99.90;;;;;;7331543;19;110133;-65
2023/08/27 10:23:10;;;;;;;;;;;21.30;99.90;;;;;;7334418;19;109724;-66
2023/08/27 10:25:37;;;;;;;;;;;21.30;99.90;;;;;;7331844;19;109868;-66
2023/08/27 10:28:06;;;;;;;;;;;21.20;99.90;;;;;;7337301;19;109417;-66
2023/08/27 10:30:34;;;;;;;;;;;21.20;99.90;;;;;;7334550;19;111230;-66
2023/08/27 10:33:01;;;;;;;;;;;21.20;99.90;;;;;;7332245;19;110741;-66
2023/08/27 10:35:32;;;;;;;;;;;21.10;99.90;;;;;;7331542;19;110058;-66
2023/08/27 10:37:59;;;;;;;;;;;21.00;99.90;;;;;;7328390;19;110077;-66
2023/08/27 10:40:27;;;;;;;;;;;21.00;99.90;;;;;;7333605;19;108848;-66
2023/08/27 10:43:07;;;;;;;;;;;20.90;99.90;;;;;;7329551;19;110383;-66
2023/08/27 10:45:38;;;;;;;;;;;20.80;99.90;;;;;;7333108;19;109888;-67
2023/08/27 10:48:15;;;;;;;;;;;20.80;99.90;;;;;;7332548;19;109032;-67
2023/08/27 10:50:49;;;;;;;;;;;20.80;99.90;;;;;;7332226;19;109930;-67
2023/08/27 10:53:16;;;;;;;;;;;20.70;99.90;;;;;;7332537;19;109913;-67
2023/08/27 10:55:48;;;;;;;;;;;20.60;99.90;;;;;;7328800;19;110270;-67
2023/08/27 10:58:17;;;;;;;;;;;20.50;99.90;;;;;;7332319;19;109505;-67
2023/08/27 11:01:02;;;;;;;;;;;20.50;99.90;;;;;;7333118;19;109035;-66
2023/08/27 11:03:48;;;;;;;;;;;20.60;99.90;;;;;;7329960;19;108936;-66
2023/08/27 11:06:15;;;;;;;;;;;20.70;99.90;;;;;;7331677;19;110224;-67
2023/08/27 11:08:43;;;;;;;;;;;20.90;99.90;;;;;;7331491;19;111112;-66
2023/08/27 11:11:13;;;;;;;;;;;21.20;99.90;;;;;;7334697;19;110991;-68
2023/08/27 11:13:47;;;;;;;;;;;21.40;99.90;;;;;;7331508;19;108592;-66
2023/08/27 11:16:15;;;;;;;;;;;21.70;99.90;;;;;;7328915;19;109755;-66
2023/08/27 11:18:49;;;;;;;;;;;21.80;99.90;;;;;;7329899;19;110113;-66
2023/08/27 11:21:25;;;;;;;;;;;22.00;99.90;;;;;;7329141;19;108574;-66
2023/08/27 11:24:26;;;;;;;;;;;22.20;99.90;;;;;;7332020;19;109062;-66
2023/08/27 11:26:53;;;;;;;;;;;22.30;99.90;;;;;;7324363;19;110767;-66
2023/08/27 11:29:22;;;;;;;;;;;22.50;99.90;;;;;;7327985;19;114977;-66
2023/08/27 11:31:50;;;;;;;;;;;22.60;99.90;;;;;;7325790;19;108973;-66
2023/08/27 11:34:18;;;;;;;;;;;22.70;99.90;;;;;;7330001;19;109462;-66
2023/08/27 11:36:46;;;;;;;;;;;22.90;99.90;;;;;;7325271;19;109515;-66
2023/08/27 11:39:14;;;;;;;;;;;23.00;99.90;;;;;;7323288;19;109207;-65
2023/08/27 11:41:44;;;;;;;;;;;23.10;99.90;;;;;;7323460;19;109833;-66
2023/08/27 11:44:11;;;;;;;;;;;23.20;99.90;;;;;;7328098;19;108967;-66
2023/08/27 11:46:40;;;;;;;;;;;23.30;99.90;;;;;;7323869;19;109063;-66
2023/08/27 11:49:08;;;;;;;;;;;23.50;99.90;;;;;;7328033;19;108790;-67
2023/08/27 11:51:35;;;;;;;;;;;23.60;99.90;;;;;;7329823;19;109502;-66
2023/08/27 11:54:06;;;;;;;;;;;23.70;99.90;;;;;;7330837;19;110218;-64
2023/08/27 11:56:37;;;;;;;;;;;23.70;99.90;;;;;;7336663;19;108727;-67
2023/08/27 11:59:04;;;;;;;;;;;23.70;99.90;;;;;;7333158;19;110045;-66
2023/08/27 12:01:32;;;;;;;;;;;23.50;99.90;;;;;;7333057;19;109329;-66
2023/08/27 12:04:00;;;;;;;;;;;23.30;99.90;;;;;;7336155;19;108779;-66
2023/08/27 12:06:28;;;;;;;;;;;22.80;99.90;;;;;;7334390;19;109755;-65
2023/08/27 12:08:56;;;;;;;;;;;22.40;99.90;;;;;;7337888;19;108637;-66
2023/08/27 12:11:26;;;;;;;;;;;22.00;99.90;;;;;;7337396;19;108811;-66
2023/08/27 12:14:00;;;;;;;;;;;21.70;99.90;;;;;;7339727;19;110442;-66
2023/08/27 12:16:28;;;;;;;;;;;21.20;99.90;;;;;;7336274;19;108735;-66
2023/08/27 12:19:05;;;;;;;;;;;21.10;99.90;;;;;;7331758;19;112270;-66
2023/08/27 12:21:34;;;;;;;;;;;21.00;99.90;;;;;;7335822;19;109119;-66
2023/08/27 12:24:01;;;;;;;;;;;20.90;99.90;;;;;;7329989;19;109489;-66
2023/08/27 12:26:29;;;;;;;;;;;20.70;99.90;;;;;;7337431;19;109712;-66
2023/08/27 12:28:56;;;;;;;;;;;20.50;99.90;;;;;;7333967;19;108974;-66
2023/08/27 12:31:24;;;;;;;;;;;20.40;99.90;;;;;;7338685;19;109037;-67
2023/08/27 12:34:00;;;;;;;;;;;20.30;99.90;;;;;;7331205;19;110668;-66
2023/08/27 12:36:29;;;;;;;;;;;20.10;99.90;;;;;;7336271;19;108891;-67
2023/08/27 12:38:56;;;;;;;;;;;20.00;99.90;;;;;;7338612;19;108587;-66
2023/08/27 12:41:23;;;;;;;;;;;19.90;99.90;;;;;;7337784;19;108773;-67
2023/08/27 12:43:52;;;;;;;;;;;19.80;99.90;;;;;;7333757;19;108929;-67
2023/08/27 12:46:20;;;;;;;;;;;19.80;99.90;;;;;;7336152;19;110206;-67
2023/08/27 12:48:47;;;;;;;;;;;19.70;99.90;;;;;;7335987;19;109138;-67
2023/08/27 12:51:15;;;;;;;;;;;19.70;99.90;;;;;;7335350;19;110055;-66
2023/08/27 12:53:42;;;;;;;;;;;19.80;99.90;;;;;;7334774;19;109832;-67
2023/08/27 12:56:09;;;;;;;;;;;19.90;99.90;;;;;;7333859;19;108924;-68
2023/08/27 12:58:36;;;;;;;;;;;20.00;99.90;;;;;;7335839;19;108390;-67
2023/08/27 13:01:03;;;;;;;;;;;20.10;99.90;;;;;;7340702;19;109434;-67
2023/08/27 13:03:31;;;;;;;;;;;20.10;99.90;;;;;;7331354;19;108929;-67
2023/08/27 13:05:58;;;;;;;;;;;20.20;99.90;;;;;;7334591;19;110261;-67
2023/08/27 13:08:25;;;;;;;;;;;20.30;99.90;;;;;;7332444;19;108926;-66
2023/08/27 13:10:52;;;;;;;;;;;20.40;99.90;;;;;;7335388;19;108129;-68
2023/08/27 13:13:20;;;;;;;;;;;20.50;99.90;;;;;;7325419;19;110164;-67
2023/08/27 13:15:47;;;;;;;;;;;20.70;99.90;;;;;;7332516;19;108524;-67
2023/08/27 13:18:15;;;;;;;;;;;20.90;99.90;;;;;;7331603;19;108877;-67
2023/08/27 13:20:42;;;;;;;;;;;21.10;99.90;;;;;;7329896;19;113326;-66
2023/08/27 13:23:09;;;;;;;;;;;21.30;99.90;;;;;;7334746;19;108871;-66
2023/08/27 13:25:37;;;;;;;;;;;21.50;99.90;;;;;;7336634;19;109171;-66
2023/08/27 13:28:04;;;;;;;;;;;21.60;99.90;;;;;;7333732;19;109028;-67
2023/08/27 13:30:31;;;;;;;;;;;21.70;99.90;;;;;;7333646;19;109508;-67
2023/08/27 13:32:58;;;;;;;;;;;22.00;99.90;;;;;;7332915;19;109044;-67
2023/08/27 13:35:26;;;;;;;;;;;22.20;99.90;;;;;;7333851;19;109373;-67
2023/08/27 13:37:53;;;;;;;;;;;22.40;99.90;;;;;;7332338;19;110383;-66
2023/08/27 13:40:20;;;;;;;;;;;22.70;99.90;;;;;;7332881;19;109991;-66
2023/08/27 13:42:47;;;;;;;;;;;22.90;99.90;;;;;;7334969;19;108573;-67
2023/08/27 13:45:14;;;;;;;;;;;23.10;99.90;;;;;;7340578;19;109019;-67
2023/08/27 13:47:41;;;;;;;;;;;23.20;99.90;;;;;;7333518;19;109782;-66
2023/08/27 13:50:09;;;;;;;;;;;23.10;99.90;;;;;;7333415;19;112498;-71
2023/08/27 13:52:36;;;;;;;;;;;22.90;99.90;;;;;;7331429;19;109091;-66
2023/08/27 13:55:03;;;;;;;;;;;22.80;99.90;;;;;;7333968;19;108393;-64
2023/08/27 13:57:30;;;;;;;;;;;22.60;99.90;;;;;;7332482;19;112666;-66
2023/08/27 13:59:58;;;;;;;;;;;22.50;99.90;;;;;;7334065;19;109165;-73
2023/08/27 14:02:25;;;;;;;;;;;22.40;99.90;;;;;;7334407;19;109529;-72
2023/08/27 14:04:52;;;;;;;;;;;22.40;99.90;;;;;;7335257;19;108818;-70
2023/08/27 14:07:19;;;;;;;;;;;22.50;99.90;;;;;;7342641;19;108941;-71
2023/08/27 14:09:46;;;;;;;;;;;22.50;99.90;;;;;;7333478;19;110071;-67